Kohat Weather



Kohat's Current Weather

Temprature 26o haze

haze

Rain: 0 %

Min Temprature26o
Max Temprature26o
Humidity78
Wind Speed2.1 m/h
Sun Rise05:41:45
Sun Set18:52:43
Current Time: 23-Aug-2019 05:25:15
Lat/Lon: 33.6, 71.44




Kohat's Geo Location



Kohat's Weather Forecast

Time Overall Temp Min Temp Max Temp Humidity Wind Speed Rain
23-Aug-2019 (Fri)
08:00:00 clear sky 27.990 26.987 27.990 53 1.45 m/h 0 %
11:00:00 clear sky 30.800 30.050 30.800 42 1.91 m/h 0 %
14:00:00 clear sky 33.030 32.531 33.030 32 3.07 m/h 0 %
17:00:00 clear sky 33.160 32.911 33.160 29 3.48 m/h 0 %
20:00:00 clear sky 28.950 28.950 28.950 40 1.77 m/h 0 %
23:00:00 clear sky 27.442 27.442 27.442 51 0.49 m/h 0 %
24-Aug-2019 (Sat)
02:00:00 clear sky 26.231 26.231 26.231 50 1.02 m/h 0 %
05:00:00 clear sky 24.955 24.955 24.955 57 1.07 m/h 0 %
08:00:00 clear sky 27.907 27.907 27.907 49 0.72 m/h 0 %
11:00:00 clear sky 31.369 31.369 31.369 36 1.71 m/h 0 %
14:00:00 clear sky 33.869 33.869 33.869 29 2.94 m/h 0 %
17:00:00 clear sky 33.923 33.923 33.923 26 4.69 m/h 0 %
20:00:00 clear sky 29.650 29.650 29.650 36 1.64 m/h 0 %
23:00:00 clear sky 27.969 27.969 27.969 46 0.99 m/h 0 %
25-Aug-2019 (Sun)
02:00:00 clear sky 26.431 26.431 26.431 51 1.57 m/h 0 %
05:00:00 clear sky 25.257 25.257 25.257 61 1.39 m/h 0 %
08:00:00 clear sky 28.814 28.814 28.814 46 1.42 m/h 0 %
11:00:00 clear sky 31.716 31.716 31.716 38 3.36 m/h 0 %
14:00:00 clear sky 33.550 33.550 33.550 31 3.15 m/h 0 %
17:00:00 clear sky 33.750 33.750 33.750 29 2.6 m/h 0 %
20:00:00 clear sky 29.581 29.581 29.581 43 1.21 m/h 0 %
23:00:00 clear sky 28.211 28.211 28.211 48 1.06 m/h 0 %
26-Aug-2019 (Mon)
02:00:00 clear sky 27.065 27.065 27.065 49 2.98 m/h 0 %
05:00:00 clear sky 25.050 25.050 25.050 66 1.89 m/h 0 %
08:00:00 light rain 26.567 26.567 26.567 64 2.6 m/h 31 %
11:00:00 clear sky 29.772 29.772 29.772 52 3.69 m/h 0 %
14:00:00 clear sky 31.584 31.584 31.584 46 4.11 m/h 0 %
17:00:00 clear sky 31.720 31.720 31.720 42 1.54 m/h 0 %
20:00:00 clear sky 29.272 29.272 29.272 51 1.65 m/h 0 %
23:00:00 clear sky 27.914 27.914 27.914 61 0.42 m/h 0 %
27-Aug-2019 (Tue)
02:00:00 clear sky 26.716 26.716 26.716 62 1.23 m/h 0 %
05:00:00 clear sky 25.650 25.650 25.650 68 1.03 m/h 0 %
08:00:00 clear sky 28.035 28.035 28.035 55 0.76 m/h 0 %
11:00:00 clear sky 31.236 31.236 31.236 43 1.98 m/h 0 %
14:00:00 clear sky 33.836 33.836 33.836 34 2.8 m/h 0 %
17:00:00 scattered clouds 33.565 33.565 33.565 34 2.64 m/h 0 %
20:00:00 scattered clouds 30.250 30.250 30.250 48 1.08 m/h 0 %
23:00:00 few clouds 28.750 28.750 28.750 52 1.24 m/h 0 %
28-Aug-2019 (Wed)
02:00:00 clear sky 27.257 27.257 27.257 62 0.26 m/h 0 %
05:00:00 clear sky 25.772 25.772 25.772 62 1.41 m/h 0 %

Famous Cities (61)